sensor_id;sensor_type;location;lat;lon;timestamp;P1;durP1;ratioP1;P2;durP2;ratioP2
30707;SDS011;17458;48.958;8.284;2022-08-01T00:00:05;7.82;;;2.40;;
30707;SDS011;17458;48.958;8.284;2022-08-01T00:02:51;4.70;;;2.00;;
30707;SDS011;17458;48.958;8.284;2022-08-01T00:05:35;5.70;;;2.17;;
30707;SDS011;17458;48.958;8.284;2022-08-01T00:08:19;3.05;;;2.50;;
30707;SDS011;17458;48.958;8.284;2022-08-01T00:11:03;2.90;;;1.95;;
30707;SDS011;17458;48.958;8.284;2022-08-01T00:13:47;6.15;;;2.15;;
30707;SDS011;17458;48.958;8.284;2022-08-01T00:16:31;4.55;;;1.77;;
30707;SDS011;17458;48.958;8.284;2022-08-01T00:19:16;4.80;;;2.22;;
30707;SDS011;17458;48.958;8.284;2022-08-01T00:22:00;3.85;;;1.92;;
30707;SDS011;17458;48.958;8.284;2022-08-01T00:24:44;1.75;;;1.55;;
30707;SDS011;17458;48.958;8.284;2022-08-01T00:27:28;3.22;;;1.98;;
30707;SDS011;17458;48.958;8.284;2022-08-01T00:30:12;2.20;;;2.00;;
30707;SDS011;17458;48.958;8.284;2022-08-01T00:32:56;2.75;;;1.90;;
30707;SDS011;17458;48.958;8.284;2022-08-01T00:35:40;1.95;;;1.75;;
30707;SDS011;17458;48.958;8.284;2022-08-01T00:38:24;3.28;;;1.77;;
30707;SDS011;17458;48.958;8.284;2022-08-01T00:41:08;2.85;;;2.05;;
30707;SDS011;17458;48.958;8.284;2022-08-01T00:43:51;4.50;;;2.30;;
30707;SDS011;17458;48.958;8.284;2022-08-01T00:46:36;3.70;;;2.33;;
30707;SDS011;17458;48.958;8.284;2022-08-01T00:49:20;4.75;;;2.15;;
30707;SDS011;17458;48.958;8.284;2022-08-01T00:52:04;4.80;;;2.20;;
30707;SDS011;17458;48.958;8.284;2022-08-01T00:54:49;2.40;;;2.20;;
30707;SDS011;17458;48.958;8.284;2022-08-01T00:57:34;2.20;;;2.08;;
30707;SDS011;17458;48.958;8.284;2022-08-01T01:00:18;2.33;;;2.13;;
30707;SDS011;17458;48.958;8.284;2022-08-01T01:03:02;5.78;;;2.67;;
30707;SDS011;17458;48.958;8.284;2022-08-01T01:05:56;17.42;;;3.58;;
30707;SDS011;17458;48.958;8.284;2022-08-01T01:08:55;2.58;;;2.20;;
30707;SDS011;17458;48.958;8.284;2022-08-01T01:12:02;2.13;;;1.88;;
30707;SDS011;17458;48.958;8.284;2022-08-01T01:18:29;6.30;;;2.50;;
30707;SDS011;17458;48.958;8.284;2022-08-01T01:24:11;4.05;;;2.13;;
30707;SDS011;17458;48.958;8.284;2022-08-01T01:30:00;3.63;;;2.38;;
30707;SDS011;17458;48.958;8.284;2022-08-01T01:32:46;6.85;;;2.47;;
30707;SDS011;17458;48.958;8.284;2022-08-01T01:35:34;2.90;;;2.60;;
30707;SDS011;17458;48.958;8.284;2022-08-01T01:38:21;3.97;;;2.00;;
30707;SDS011;17458;48.958;8.284;2022-08-01T01:41:10;7.97;;;2.20;;
30707;SDS011;17458;48.958;8.284;2022-08-01T01:43:55;3.90;;;2.40;;
30707;SDS011;17458;48.958;8.284;2022-08-01T01:46:41;3.38;;;2.22;;
30707;SDS011;17458;48.958;8.284;2022-08-01T01:49:27;7.32;;;2.50;;
30707;SDS011;17458;48.958;8.284;2022-08-01T01:52:16;3.90;;;2.35;;
30707;SDS011;17458;48.958;8.284;2022-08-01T01:55:01;7.78;;;2.05;;
30707;SDS011;17458;48.958;8.284;2022-08-01T01:57:50;4.72;;;2.55;;
30707;SDS011;17458;48.958;8.284;2022-08-01T02:00:36;3.30;;;2.03;;
30707;SDS011;17458;48.958;8.284;2022-08-01T02:03:21;3.33;;;2.38;;
30707;SDS011;17458;48.958;8.284;2022-08-01T02:06:07;2.70;;;2.13;;
30707;SDS011;17458;48.958;8.284;2022-08-01T02:08:52;6.43;;;2.40;;
30707;SDS011;17458;48.958;8.284;2022-08-01T02:11:37;3.85;;;2.15;;
30707;SDS011;17458;48.958;8.284;2022-08-01T02:14:23;3.08;;;2.63;;
30707;SDS011;17458;48.958;8.284;2022-08-01T02:17:11;3.63;;;2.63;;
30707;SDS011;17458;48.958;8.284;2022-08-01T02:19:58;2.97;;;2.30;;
30707;SDS011;17458;48.958;8.284;2022-08-01T02:22:45;3.65;;;2.38;;
30707;SDS011;17458;48.958;8.284;2022-08-01T02:25:48;3.47;;;2.47;;
30707;SDS011;17458;48.958;8.284;2022-08-01T02:28:36;5.55;;;2.45;;
30707;SDS011;17458;48.958;8.284;2022-08-01T02:31:27;2.72;;;2.28;;
30707;SDS011;17458;48.958;8.284;2022-08-01T02:34:15;6.70;;;2.13;;
30707;SDS011;17458;48.958;8.284;2022-08-01T02:37:02;2.60;;;2.38;;
30707;SDS011;17458;48.958;8.284;2022-08-01T02:39:47;6.32;;;2.72;;
30707;SDS011;17458;48.958;8.284;2022-08-01T02:42:34;3.42;;;2.88;;
30707;SDS011;17458;48.958;8.284;2022-08-01T02:45:22;3.17;;;2.40;;
30707;SDS011;17458;48.958;8.284;2022-08-01T02:48:09;8.98;;;2.70;;
30707;SDS011;17458;48.958;8.284;2022-08-01T02:50:55;3.67;;;2.50;;
30707;SDS011;17458;48.958;8.284;2022-08-01T02:53:43;3.53;;;2.55;;
30707;SDS011;17458;48.958;8.284;2022-08-01T02:56:29;6.10;;;2.80;;
30707;SDS011;17458;48.958;8.284;2022-08-01T02:59:19;2.83;;;2.58;;
30707;SDS011;17458;48.958;8.284;2022-08-01T03:02:09;3.20;;;2.75;;
30707;SDS011;17458;48.958;8.284;2022-08-01T03:04:54;3.35;;;2.75;;
30707;SDS011;17458;48.958;8.284;2022-08-01T03:07:41;4.43;;;2.53;;
30707;SDS011;17458;48.958;8.284;2022-08-01T03:10:26;3.63;;;2.90;;
30707;SDS011;17458;48.958;8.284;2022-08-01T03:13:14;4.82;;;3.30;;
30707;SDS011;17458;48.958;8.284;2022-08-01T03:15:59;3.92;;;2.97;;
30707;SDS011;17458;48.958;8.284;2022-08-01T03:18:46;3.80;;;3.10;;
30707;SDS011;17458;48.958;8.284;2022-08-01T03:21:31;4.13;;;3.03;;
30707;SDS011;17458;48.958;8.284;2022-08-01T03:24:18;6.03;;;2.92;;
30707;SDS011;17458;48.958;8.284;2022-08-01T03:27:03;4.00;;;2.60;;
30707;SDS011;17458;48.958;8.284;2022-08-01T03:29:48;5.45;;;2.95;;
30707;SDS011;17458;48.958;8.284;2022-08-01T03:32:34;8.05;;;3.80;;
30707;SDS011;17458;48.958;8.284;2022-08-01T03:35:18;3.40;;;2.63;;
30707;SDS011;17458;48.958;8.284;2022-08-01T03:38:05;4.78;;;2.85;;
30707;SDS011;17458;48.958;8.284;2022-08-01T03:40:58;3.45;;;3.05;;
30707;SDS011;17458;48.958;8.284;2022-08-01T03:43:54;3.67;;;2.45;;
30707;SDS011;17458;48.958;8.284;2022-08-01T03:46:48;3.67;;;3.00;;
30707;SDS011;17458;48.958;8.284;2022-08-01T03:49:40;4.03;;;2.92;;
30707;SDS011;17458;48.958;8.284;2022-08-01T03:52:31;3.10;;;2.25;;
30707;SDS011;17458;48.958;8.284;2022-08-01T03:55:16;4.25;;;2.78;;
30707;SDS011;17458;48.958;8.284;2022-08-01T03:58:02;5.82;;;3.22;;
30707;SDS011;17458;48.958;8.284;2022-08-01T04:00:47;4.05;;;2.78;;
30707;SDS011;17458;48.958;8.284;2022-08-01T04:03:32;3.15;;;2.38;;
30707;SDS011;17458;48.958;8.284;2022-08-01T04:06:16;3.85;;;2.83;;
30707;SDS011;17458;48.958;8.284;2022-08-01T04:09:01;6.47;;;2.65;;
30707;SDS011;17458;48.958;8.284;2022-08-01T04:11:45;3.75;;;2.72;;
30707;SDS011;17458;48.958;8.284;2022-08-01T04:14:29;3.50;;;3.00;;
30707;SDS011;17458;48.958;8.284;2022-08-01T04:17:13;4.15;;;2.83;;
30707;SDS011;17458;48.958;8.284;2022-08-01T04:19:57;5.20;;;2.85;;
30707;SDS011;17458;48.958;8.284;2022-08-01T04:22:41;3.35;;;2.83;;
30707;SDS011;17458;48.958;8.284;2022-08-01T04:25:26;2.83;;;2.53;;
30707;SDS011;17458;48.958;8.284;2022-08-01T04:28:15;2.85;;;2.42;;
30707;SDS011;17458;48.958;8.284;2022-08-01T04:31:01;4.00;;;3.20;;
30707;SDS011;17458;48.958;8.284;2022-08-01T04:33:49;5.22;;;2.83;;
30707;SDS011;17458;48.958;8.284;2022-08-01T04:36:35;2.83;;;2.42;;
30707;SDS011;17458;48.958;8.284;2022-08-01T04:39:23;3.70;;;2.30;;
30707;SDS011;17458;48.958;8.284;2022-08-01T04:42:14;3.53;;;2.60;;
30707;SDS011;17458;48.958;8.284;2022-08-01T04:44:59;4.60;;;2.58;;
30707;SDS011;17458;48.958;8.284;2022-08-01T04:47:43;7.57;;;2.75;;
30707;SDS011;17458;48.958;8.284;2022-08-01T04:50:29;3.30;;;2.78;;
30707;SDS011;17458;48.958;8.284;2022-08-01T04:53:16;5.05;;;2.45;;
30707;SDS011;17458;48.958;8.284;2022-08-01T04:56:02;3.53;;;2.90;;
30707;SDS011;17458;48.958;8.284;2022-08-01T04:58:46;7.20;;;3.05;;
30707;SDS011;17458;48.958;8.284;2022-08-01T05:01:30;4.20;;;3.03;;
30707;SDS011;17458;48.958;8.284;2022-08-01T05:04:14;5.13;;;2.88;;
30707;SDS011;17458;48.958;8.284;2022-08-01T05:06:58;5.30;;;2.80;;
30707;SDS011;17458;48.958;8.284;2022-08-01T05:09:42;2.80;;;2.40;;
30707;SDS011;17458;48.958;8.284;2022-08-01T05:12:26;4.03;;;2.58;;
30707;SDS011;17458;48.958;8.284;2022-08-01T05:15:10;4.35;;;2.55;;
30707;SDS011;17458;48.958;8.284;2022-08-01T05:17:56;8.75;;;3.25;;
30707;SDS011;17458;48.958;8.284;2022-08-01T05:20:56;3.20;;;2.53;;
30707;SDS011;17458;48.958;8.284;2022-08-01T05:23:40;4.47;;;2.85;;
30707;SDS011;17458;48.958;8.284;2022-08-01T05:26:24;3.95;;;2.30;;
30707;SDS011;17458;48.958;8.284;2022-08-01T05:29:08;3.33;;;2.50;;
30707;SDS011;17458;48.958;8.284;2022-08-01T05:31:52;5.72;;;2.58;;
30707;SDS011;17458;48.958;8.284;2022-08-01T05:34:38;3.90;;;2.35;;
30707;SDS011;17458;48.958;8.284;2022-08-01T05:37:22;9.75;;;5.40;;
30707;SDS011;17458;48.958;8.284;2022-08-01T05:40:06;7.57;;;3.65;;
30707;SDS011;17458;48.958;8.284;2022-08-01T05:42:54;5.93;;;3.10;;
30707;SDS011;17458;48.958;8.284;2022-08-01T05:45:38;4.95;;;2.53;;
30707;SDS011;17458;48.958;8.284;2022-08-01T05:48:22;2.88;;;2.15;;
30707;SDS011;17458;48.958;8.284;2022-08-01T05:51:06;7.70;;;2.40;;
30707;SDS011;17458;48.958;8.284;2022-08-01T05:53:49;6.28;;;2.90;;
30707;SDS011;17458;48.958;8.284;2022-08-01T05:56:34;4.53;;;2.60;;
30707;SDS011;17458;48.958;8.284;2022-08-01T05:59:18;4.35;;;2.90;;
30707;SDS011;17458;48.958;8.284;2022-08-01T06:02:02;4.53;;;2.80;;
30707;SDS011;17458;48.958;8.284;2022-08-01T06:04:46;7.68;;;1.85;;
30707;SDS011;17458;48.958;8.284;2022-08-01T06:07:30;9.15;;;2.67;;
30707;SDS011;17458;48.958;8.284;2022-08-01T06:10:14;3.10;;;2.03;;
30707;SDS011;17458;48.958;8.284;2022-08-01T06:12:58;5.97;;;2.42;;
30707;SDS011;17458;48.958;8.284;2022-08-01T06:15:47;2.40;;;2.20;;
30707;SDS011;17458;48.958;8.284;2022-08-01T06:18:31;4.80;;;2.08;;
30707;SDS011;17458;48.958;8.284;2022-08-01T06:21:15;9.32;;;3.35;;
30707;SDS011;17458;48.958;8.284;2022-08-01T06:23:59;16.60;;;9.57;;
30707;SDS011;17458;48.958;8.284;2022-08-01T06:26:43;11.73;;;6.72;;
30707;SDS011;17458;48.958;8.284;2022-08-01T06:29:29;8.20;;;4.88;;
30707;SDS011;17458;48.958;8.284;2022-08-01T06:32:14;6.45;;;3.63;;
30707;SDS011;17458;48.958;8.284;2022-08-01T06:34:58;4.32;;;3.50;;
30707;SDS011;17458;48.958;8.284;2022-08-01T06:37:42;4.53;;;2.67;;
30707;SDS011;17458;48.958;8.284;2022-08-01T06:40:28;2.70;;;2.20;;
30707;SDS011;17458;48.958;8.284;2022-08-01T06:43:12;7.47;;;3.30;;
30707;SDS011;17458;48.958;8.284;2022-08-01T06:45:56;6.95;;;3.10;;
30707;SDS011;17458;48.958;8.284;2022-08-01T06:48:40;7.32;;;3.20;;
30707;SDS011;17458;48.958;8.284;2022-08-01T06:51:24;8.05;;;2.70;;
30707;SDS011;17458;48.958;8.284;2022-08-01T06:54:08;2.35;;;2.15;;
30707;SDS011;17458;48.958;8.284;2022-08-01T06:56:52;5.32;;;2.60;;
30707;SDS011;17458;48.958;8.284;2022-08-01T06:59:36;5.72;;;2.05;;
30707;SDS011;17458;48.958;8.284;2022-08-01T07:02:20;3.60;;;2.20;;
30707;SDS011;17458;48.958;8.284;2022-08-01T07:05:04;3.22;;;1.80;;
30707;SDS011;17458;48.958;8.284;2022-08-01T07:07:49;4.85;;;2.00;;
30707;SDS011;17458;48.958;8.284;2022-08-01T07:10:33;3.88;;;2.17;;
30707;SDS011;17458;48.958;8.284;2022-08-01T07:13:17;5.93;;;2.55;;
30707;SDS011;17458;48.958;8.284;2022-08-01T07:16:04;8.55;;;2.13;;
30707;SDS011;17458;48.958;8.284;2022-08-01T07:18:48;2.78;;;2.30;;
30707;SDS011;17458;48.958;8.284;2022-08-01T07:21:32;5.13;;;1.83;;
30707;SDS011;17458;48.958;8.284;2022-08-01T07:24:16;4.80;;;2.05;;
30707;SDS011;17458;48.958;8.284;2022-08-01T07:27:01;6.53;;;2.80;;
30707;SDS011;17458;48.958;8.284;2022-08-01T07:29:45;7.55;;;2.53;;
30707;SDS011;17458;48.958;8.284;2022-08-01T07:32:29;2.72;;;2.25;;
30707;SDS011;17458;48.958;8.284;2022-08-01T07:35:14;4.88;;;2.20;;
30707;SDS011;17458;48.958;8.284;2022-08-01T07:37:58;3.58;;;1.63;;
30707;SDS011;17458;48.958;8.284;2022-08-01T07:40:42;9.05;;;2.00;;
30707;SDS011;17458;48.958;8.284;2022-08-01T07:43:27;2.95;;;1.88;;
30707;SDS011;17458;48.958;8.284;2022-08-01T07:46:12;4.25;;;1.80;;
30707;SDS011;17458;48.958;8.284;2022-08-01T07:48:56;2.75;;;1.60;;
30707;SDS011;17458;48.958;8.284;2022-08-01T07:51:40;2.13;;;1.90;;
30707;SDS011;17458;48.958;8.284;2022-08-01T07:54:24;5.90;;;2.25;;
30707;SDS011;17458;48.958;8.284;2022-08-01T07:57:11;2.50;;;1.73;;
30707;SDS011;17458;48.958;8.284;2022-08-01T07:59:55;4.88;;;1.45;;
30707;SDS011;17458;48.958;8.284;2022-08-01T08:02:39;3.88;;;1.70;;
30707;SDS011;17458;48.958;8.284;2022-08-01T08:05:23;4.72;;;1.30;;
30707;SDS011;17458;48.958;8.284;2022-08-01T08:08:08;2.53;;;1.20;;
30707;SDS011;17458;48.958;8.284;2022-08-01T08:10:52;4.07;;;1.50;;
30707;SDS011;17458;48.958;8.284;2022-08-01T08:13:37;7.22;;;1.63;;
30707;SDS011;17458;48.958;8.284;2022-08-01T08:16:21;1.73;;;1.00;;
30707;SDS011;17458;48.958;8.284;2022-08-01T08:19:05;4.20;;;1.00;;
30707;SDS011;17458;48.958;8.284;2022-08-01T08:21:49;6.18;;;1.13;;
30707;SDS011;17458;48.958;8.284;2022-08-01T08:24:33;2.28;;;1.50;;
30707;SDS011;17458;48.958;8.284;2022-08-01T08:27:17;1.95;;;1.40;;
30707;SDS011;17458;48.958;8.284;2022-08-01T08:30:01;1.73;;;1.33;;
30707;SDS011;17458;48.958;8.284;2022-08-01T08:32:46;3.80;;;1.42;;
30707;SDS011;17458;48.958;8.284;2022-08-01T08:35:31;1.60;;;1.20;;
30707;SDS011;17458;48.958;8.284;2022-08-01T08:38:15;4.00;;;1.50;;
30707;SDS011;17458;48.958;8.284;2022-08-01T08:40:59;1.38;;;1.13;;
30707;SDS011;17458;48.958;8.284;2022-08-01T08:43:43;2.20;;;1.20;;
30707;SDS011;17458;48.958;8.284;2022-08-01T08:46:27;5.28;;;1.05;;
30707;SDS011;17458;48.958;8.284;2022-08-01T08:49:14;2.53;;;1.40;;
30707;SDS011;17458;48.958;8.284;2022-08-01T08:52:00;5.68;;;1.30;;
30707;SDS011;17458;48.958;8.284;2022-08-01T08:54:46;1.30;;;1.20;;
30707;SDS011;17458;48.958;8.284;2022-08-01T08:57:31;1.50;;;1.00;;
30707;SDS011;17458;48.958;8.284;2022-08-01T09:00:16;4.75;;;1.30;;
30707;SDS011;17458;48.958;8.284;2022-08-01T09:03:00;1.90;;;1.13;;
30707;SDS011;17458;48.958;8.284;2022-08-01T09:05:44;1.17;;;1.08;;
30707;SDS011;17458;48.958;8.284;2022-08-01T09:08:28;1.58;;;0.80;;
30707;SDS011;17458;48.958;8.284;2022-08-01T09:11:13;4.35;;;1.42;;
30707;SDS011;17458;48.958;8.284;2022-08-01T09:14:17;2.50;;;1.25;;
30707;SDS011;17458;48.958;8.284;2022-08-01T09:17:10;1.20;;;1.02;;
30707;SDS011;17458;48.958;8.284;2022-08-01T09:19:56;3.30;;;1.20;;
30707;SDS011;17458;48.958;8.284;2022-08-01T09:22:40;5.05;;;1.10;;
30707;SDS011;17458;48.958;8.284;2022-08-01T09:25:24;3.33;;;1.10;;
30707;SDS011;17458;48.958;8.284;2022-08-01T09:28:08;1.77;;;1.30;;
30707;SDS011;17458;48.958;8.284;2022-08-01T09:30:51;2.13;;;1.02;;
30707;SDS011;17458;48.958;8.284;2022-08-01T09:36:48;4.75;;;1.42;;
30707;SDS011;17458;48.958;8.284;2022-08-01T09:39:35;4.63;;;1.65;;
30707;SDS011;17458;48.958;8.284;2022-08-01T09:42:26;1.10;;;0.93;;
30707;SDS011;17458;48.958;8.284;2022-08-01T09:45:30;1.35;;;1.15;;
30707;SDS011;17458;48.958;8.284;2022-08-01T09:48:15;1.92;;;1.10;;
30707;SDS011;17458;48.958;8.284;2022-08-01T09:51:02;4.50;;;1.52;;
30707;SDS011;17458;48.958;8.284;2022-08-01T09:53:47;7.38;;;1.30;;
30707;SDS011;17458;48.958;8.284;2022-08-01T09:56:36;1.58;;;0.90;;
30707;SDS011;17458;48.958;8.284;2022-08-01T09:59:33;1.40;;;1.10;;
30707;SDS011;17458;48.958;8.284;2022-08-01T10:02:36;1.33;;;1.10;;
30707;SDS011;17458;48.958;8.284;2022-08-01T10:05:34;1.63;;;0.90;;
30707;SDS011;17458;48.958;8.284;2022-08-01T10:08:19;2.35;;;1.30;;
30707;SDS011;17458;48.958;8.284;2022-08-01T10:11:11;1.75;;;1.27;;
30707;SDS011;17458;48.958;8.284;2022-08-01T10:13:55;1.42;;;1.13;;
30707;SDS011;17458;48.958;8.284;2022-08-01T10:16:42;4.95;;;1.33;;
30707;SDS011;17458;48.958;8.284;2022-08-01T10:19:27;3.33;;;1.70;;
30707;SDS011;17458;48.958;8.284;2022-08-01T10:22:12;1.92;;;1.30;;
30707;SDS011;17458;48.958;8.284;2022-08-01T10:25:01;1.88;;;1.17;;
30707;SDS011;17458;48.958;8.284;2022-08-01T10:27:48;1.50;;;1.20;;
30707;SDS011;17458;48.958;8.284;2022-08-01T10:30:33;3.03;;;1.58;;
30707;SDS011;17458;48.958;8.284;2022-08-01T10:33:18;2.55;;;1.65;;
30707;SDS011;17458;48.958;8.284;2022-08-01T10:36:05;3.05;;;1.45;;
30707;SDS011;17458;48.958;8.284;2022-08-01T10:38:50;6.30;;;1.63;;
30707;SDS011;17458;48.958;8.284;2022-08-01T10:41:34;6.28;;;1.80;;
30707;SDS011;17458;48.958;8.284;2022-08-01T10:44:19;1.73;;;1.40;;
30707;SDS011;17458;48.958;8.284;2022-08-01T10:47:11;2.08;;;1.67;;
30707;SDS011;17458;48.958;8.284;2022-08-01T10:49:58;2.17;;;1.55;;
30707;SDS011;17458;48.958;8.284;2022-08-01T10:53:05;2.75;;;1.45;;
30707;SDS011;17458;48.958;8.284;2022-08-01T10:58:41;2.40;;;1.60;;
30707;SDS011;17458;48.958;8.284;2022-08-01T11:01:26;2.03;;;1.67;;
30707;SDS011;17458;48.958;8.284;2022-08-01T11:04:15;4.88;;;1.33;;
30707;SDS011;17458;48.958;8.284;2022-08-01T11:07:06;6.15;;;1.90;;
30707;SDS011;17458;48.958;8.284;2022-08-01T11:10:04;3.00;;;1.55;;
30707;SDS011;17458;48.958;8.284;2022-08-01T11:12:56;1.45;;;1.20;;
30707;SDS011;17458;48.958;8.284;2022-08-01T11:15:41;1.33;;;1.00;;
30707;SDS011;17458;48.958;8.284;2022-08-01T11:18:29;3.78;;;1.10;;
30707;SDS011;17458;48.958;8.284;2022-08-01T11:21:14;5.95;;;1.67;;
30707;SDS011;17458;48.958;8.284;2022-08-01T11:23:59;2.47;;;1.45;;
30707;SDS011;17458;48.958;8.284;2022-08-01T11:27:11;5.85;;;1.70;;
30707;SDS011;17458;48.958;8.284;2022-08-01T11:32:53;2.00;;;1.50;;
30707;SDS011;17458;48.958;8.284;2022-08-01T11:41:41;3.05;;;1.45;;
30707;SDS011;17458;48.958;8.284;2022-08-01T11:44:26;3.83;;;1.30;;
30707;SDS011;17458;48.958;8.284;2022-08-01T11:47:11;1.88;;;1.45;;
30707;SDS011;17458;48.958;8.284;2022-08-01T11:49:55;1.90;;;1.33;;
30707;SDS011;17458;48.958;8.284;2022-08-01T11:52:41;4.30;;;1.23;;
30707;SDS011;17458;48.958;8.284;2022-08-01T11:55:26;3.22;;;1.63;;
30707;SDS011;17458;48.958;8.284;2022-08-01T11:58:12;1.38;;;1.27;;
30707;SDS011;17458;48.958;8.284;2022-08-01T12:00:56;2.03;;;1.35;;
30707;SDS011;17458;48.958;8.284;2022-08-01T12:03:42;0.98;;;0.88;;
30707;SDS011;17458;48.958;8.284;2022-08-01T12:06:26;3.53;;;1.20;;
30707;SDS011;17458;48.958;8.284;2022-08-01T12:09:15;1.85;;;1.48;;
30707;SDS011;17458;48.958;8.284;2022-08-01T12:12:01;4.88;;;1.20;;
30707;SDS011;17458;48.958;8.284;2022-08-01T12:14:45;2.55;;;1.20;;
30707;SDS011;17458;48.958;8.284;2022-08-01T12:17:37;2.38;;;1.08;;
30707;SDS011;17458;48.958;8.284;2022-08-01T12:20:29;4.68;;;0.95;;
30707;SDS011;17458;48.958;8.284;2022-08-01T12:23:15;3.15;;;1.30;;
30707;SDS011;17458;48.958;8.284;2022-08-01T12:26:00;4.80;;;1.42;;
30707;SDS011;17458;48.958;8.284;2022-08-01T12:28:45;1.27;;;1.17;;
30707;SDS011;17458;48.958;8.284;2022-08-01T12:31:32;1.35;;;1.00;;
30707;SDS011;17458;48.958;8.284;2022-08-01T12:34:24;1.73;;;1.10;;
30707;SDS011;17458;48.958;8.284;2022-08-01T12:37:09;2.67;;;0.85;;
30707;SDS011;17458;48.958;8.284;2022-08-01T12:39:53;2.15;;;1.00;;
30707;SDS011;17458;48.958;8.284;2022-08-01T12:42:38;0.80;;;0.80;;
30707;SDS011;17458;48.958;8.284;2022-08-01T12:45:24;2.28;;;1.10;;
30707;SDS011;17458;48.958;8.284;2022-08-01T12:48:30;2.30;;;0.82;;
30707;SDS011;17458;48.958;8.284;2022-08-01T12:51:15;1.45;;;1.00;;
30707;SDS011;17458;48.958;8.284;2022-08-01T12:53:59;2.33;;;0.82;;
30707;SDS011;17458;48.958;8.284;2022-08-01T12:56:43;4.88;;;1.08;;
30707;SDS011;17458;48.958;8.284;2022-08-01T12:59:27;2.30;;;1.00;;
30707;SDS011;17458;48.958;8.284;2022-08-01T13:02:12;3.25;;;0.80;;
30707;SDS011;17458;48.958;8.284;2022-08-01T13:04:56;1.27;;;0.80;;
30707;SDS011;17458;48.958;8.284;2022-08-01T13:07:42;1.38;;;0.93;;
30707;SDS011;17458;48.958;8.284;2022-08-01T13:10:30;1.23;;;0.60;;
30707;SDS011;17458;48.958;8.284;2022-08-01T13:13:17;2.15;;;0.85;;
30707;SDS011;17458;48.958;8.284;2022-08-01T13:16:04;1.02;;;0.80;;
30707;SDS011;17458;48.958;8.284;2022-08-01T13:18:49;0.95;;;0.77;;
30707;SDS011;17458;48.958;8.284;2022-08-01T13:21:35;4.40;;;0.90;;
30707;SDS011;17458;48.958;8.284;2022-08-01T13:24:28;0.82;;;0.80;;
30707;SDS011;17458;48.958;8.284;2022-08-01T13:27:19;1.17;;;0.88;;
30707;SDS011;17458;48.958;8.284;2022-08-01T13:30:17;2.50;;;1.02;;
30707;SDS011;17458;48.958;8.284;2022-08-01T13:33:03;0.50;;;0.50;;
30707;SDS011;17458;48.958;8.284;2022-08-01T13:35:49;1.63;;;0.65;;
30707;SDS011;17458;48.958;8.284;2022-08-01T13:38:33;1.98;;;1.05;;
30707;SDS011;17458;48.958;8.284;2022-08-01T13:41:36;2.25;;;0.77;;
30707;SDS011;17458;48.958;8.284;2022-08-01T13:44:20;0.40;;;0.40;;
30707;SDS011;17458;48.958;8.284;2022-08-01T13:47:05;0.75;;;0.75;;
30707;SDS011;17458;48.958;8.284;2022-08-01T13:49:49;1.15;;;0.68;;
30707;SDS011;17458;48.958;8.284;2022-08-01T13:52:33;1.58;;;0.73;;
30707;SDS011;17458;48.958;8.284;2022-08-01T13:55:17;1.77;;;0.60;;
30707;SDS011;17458;48.958;8.284;2022-08-01T13:58:01;0.90;;;0.80;;
30707;SDS011;17458;48.958;8.284;2022-08-01T14:00:46;0.77;;;0.77;;
30707;SDS011;17458;48.958;8.284;2022-08-01T14:03:30;3.58;;;0.82;;
30707;SDS011;17458;48.958;8.284;2022-08-01T14:06:15;4.55;;;0.98;;
30707;SDS011;17458;48.958;8.284;2022-08-01T14:09:01;1.20;;;0.55;;
30707;SDS011;17458;48.958;8.284;2022-08-01T14:11:46;1.20;;;0.80;;
30707;SDS011;17458;48.958;8.284;2022-08-01T14:14:30;0.93;;;0.80;;
30707;SDS011;17458;48.958;8.284;2022-08-01T14:17:14;1.63;;;0.85;;
30707;SDS011;17458;48.958;8.284;2022-08-01T14:19:58;1.85;;;0.70;;
30707;SDS011;17458;48.958;8.284;2022-08-01T14:22:43;1.77;;;0.57;;
30707;SDS011;17458;48.958;8.284;2022-08-01T14:25:26;3.03;;;0.80;;
30707;SDS011;17458;48.958;8.284;2022-08-01T14:28:10;3.05;;;1.40;;
30707;SDS011;17458;48.958;8.284;2022-08-01T14:30:54;0.77;;;0.50;;
30707;SDS011;17458;48.958;8.284;2022-08-01T14:33:39;1.17;;;0.60;;
30707;SDS011;17458;48.958;8.284;2022-08-01T14:36:23;1.25;;;0.73;;
30707;SDS011;17458;48.958;8.284;2022-08-01T14:39:07;0.60;;;0.60;;
30707;SDS011;17458;48.958;8.284;2022-08-01T14:41:51;1.17;;;0.65;;
30707;SDS011;17458;48.958;8.284;2022-08-01T14:44:35;1.25;;;0.68;;
30707;SDS011;17458;48.958;8.284;2022-08-01T14:47:19;0.70;;;0.70;;
30707;SDS011;17458;48.958;8.284;2022-08-01T14:50:06;1.10;;;0.90;;
30707;SDS011;17458;48.958;8.284;2022-08-01T14:52:52;0.93;;;0.75;;
30707;SDS011;17458;48.958;8.284;2022-08-01T14:55:37;1.48;;;0.65;;
30707;SDS011;17458;48.958;8.284;2022-08-01T14:58:22;3.85;;;0.70;;
30707;SDS011;17458;48.958;8.284;2022-08-01T15:01:06;1.10;;;0.68;;
30707;SDS011;17458;48.958;8.284;2022-08-01T15:03:50;2.00;;;0.85;;
30707;SDS011;17458;48.958;8.284;2022-08-01T15:06:34;1.00;;;0.60;;
30707;SDS011;17458;48.958;8.284;2022-08-01T15:09:18;4.97;;;0.68;;
30707;SDS011;17458;48.958;8.284;2022-08-01T15:12:03;2.90;;;0.70;;
30707;SDS011;17458;48.958;8.284;2022-08-01T15:14:47;7.97;;;0.75;;
30707;SDS011;17458;48.958;8.284;2022-08-01T15:17:31;1.13;;;0.65;;
30707;SDS011;17458;48.958;8.284;2022-08-01T15:20:15;5.40;;;0.80;;
30707;SDS011;17458;48.958;8.284;2022-08-01T15:22:59;3.28;;;0.80;;
30707;SDS011;17458;48.958;8.284;2022-08-01T15:25:44;1.65;;;0.80;;
30707;SDS011;17458;48.958;8.284;2022-08-01T15:28:28;2.97;;;0.82;;
30707;SDS011;17458;48.958;8.284;2022-08-01T15:31:12;1.02;;;0.50;;
30707;SDS011;17458;48.958;8.284;2022-08-01T15:33:57;4.70;;;1.30;;
30707;SDS011;17458;48.958;8.284;2022-08-01T15:36:41;4.93;;;1.23;;
30707;SDS011;17458;48.958;8.284;2022-08-01T15:39:28;6.22;;;0.98;;
30707;SDS011;17458;48.958;8.284;2022-08-01T15:42:15;8.07;;;1.00;;
30707;SDS011;17458;48.958;8.284;2022-08-01T15:45:00;1.42;;;0.70;;
30707;SDS011;17458;48.958;8.284;2022-08-01T15:47:44;5.10;;;1.20;;
30707;SDS011;17458;48.958;8.284;2022-08-01T15:50:28;6.75;;;1.67;;
30707;SDS011;17458;48.958;8.284;2022-08-01T15:53:12;7.72;;;1.10;;
30707;SDS011;17458;48.958;8.284;2022-08-01T15:55:56;7.93;;;0.98;;
30707;SDS011;17458;48.958;8.284;2022-08-01T15:58:41;1.33;;;0.90;;
30707;SDS011;17458;48.958;8.284;2022-08-01T16:01:25;2.33;;;0.98;;
30707;SDS011;17458;48.958;8.284;2022-08-01T16:04:10;5.45;;;0.90;;
30707;SDS011;17458;48.958;8.284;2022-08-01T16:06:54;5.50;;;1.27;;
30707;SDS011;17458;48.958;8.284;2022-08-01T16:09:38;4.53;;;0.70;;
30707;SDS011;17458;48.958;8.284;2022-08-01T16:12:22;1.35;;;1.08;;
30707;SDS011;17458;48.958;8.284;2022-08-01T16:15:06;1.15;;;0.90;;
30707;SDS011;17458;48.958;8.284;2022-08-01T16:17:52;0.60;;;0.60;;
30707;SDS011;17458;48.958;8.284;2022-08-01T16:20:35;0.80;;;0.70;;
30707;SDS011;17458;48.958;8.284;2022-08-01T16:23:20;2.72;;;0.70;;
30707;SDS011;17458;48.958;8.284;2022-08-01T16:26:04;1.38;;;0.60;;
30707;SDS011;17458;48.958;8.284;2022-08-01T16:28:48;2.47;;;0.82;;
30707;SDS011;17458;48.958;8.284;2022-08-01T16:31:35;3.90;;;0.65;;
30707;SDS011;17458;48.958;8.284;2022-08-01T16:34:19;6.38;;;0.68;;
30707;SDS011;17458;48.958;8.284;2022-08-01T16:37:03;5.30;;;0.60;;
30707;SDS011;17458;48.958;8.284;2022-08-01T16:39:47;2.53;;;0.50;;
30707;SDS011;17458;48.958;8.284;2022-08-01T16:42:31;1.23;;;0.80;;
30707;SDS011;17458;48.958;8.284;2022-08-01T16:45:15;1.02;;;0.57;;
30707;SDS011;17458;48.958;8.284;2022-08-01T16:48:00;3.53;;;0.50;;
30707;SDS011;17458;48.958;8.284;2022-08-01T16:50:45;2.42;;;0.70;;
30707;SDS011;17458;48.958;8.284;2022-08-01T16:53:32;3.67;;;0.73;;
30707;SDS011;17458;48.958;8.284;2022-08-01T16:56:16;1.83;;;0.63;;
30707;SDS011;17458;48.958;8.284;2022-08-01T16:59:00;2.85;;;0.60;;
30707;SDS011;17458;48.958;8.284;2022-08-01T17:01:44;3.55;;;1.67;;
30707;SDS011;17458;48.958;8.284;2022-08-01T17:04:28;3.08;;;1.13;;